KGTF/GTF METAR and TAF weather

Enter ICAO airport designator
Station Type Date Time Source
KGTF METAR 2022/08/16 18:53 UTC NOAA

KGTF 161853Z 00000KT 10SM CLR 32/00 A3008 RMK AO2 SLP153 T03170000 $


Station Type Date Time Source
KGTF Decoded METAR 2022/08/16 18:53 UTC NOAA

GREAT FALLS INTERNATIONAL, MT, United States (KGTF) 47-28N 111-23W 1119M
Aug 16, 2022 - 02:53 PM EDT / 2022.08.16 1853 UTC
Wind: Calm:0
Visibility: 10 mile(s):0
Sky conditions: clear
Temperature: 89.1 F (31.7 C)
Dew Point: 32.0 F (0.0 C)
Relative Humidity: 13%
Pressure (altimeter): 30.08 in. Hg (1018 hPa)
ob: KGTF 161853Z 00000KT 10SM CLR 32/00 A3008 RMK AO2 SLP153 T03170000
cycle: 19

Station Type Date Time Source
KGTF TAF 2022/08/16 18:22 UTC NOAA

TAF KGTF 161720Z 1618/1718 VRB06KT P6SM SKC
FM171400 33007KT P6SM SKC

Example: see airport list